sensor_id;sensor_type;location;lat;lon;timestamp;temperature;humidity
2002;DHT22;1003;48.002;7.788;2023-11-22T00:01:20;7.50;99.90
2002;DHT22;1003;48.002;7.788;2023-11-22T00:03:47;7.50;99.90
2002;DHT22;1003;48.002;7.788;2023-11-22T00:06:14;7.50;99.90
2002;DHT22;1003;48.002;7.788;2023-11-22T00:08:41;7.40;99.90
2002;DHT22;1003;48.002;7.788;2023-11-22T00:11:08;7.40;99.90
2002;DHT22;1003;48.002;7.788;2023-11-22T00:13:35;7.40;99.90
2002;DHT22;1003;48.002;7.788;2023-11-22T00:16:04;7.40;99.90
2002;DHT22;1003;48.002;7.788;2023-11-22T00:18:34;7.40;99.90
2002;DHT22;1003;48.002;7.788;2023-11-22T00:21:03;7.40;99.90
2002;DHT22;1003;48.002;7.788;2023-11-22T00:23:30;7.40;99.90
2002;DHT22;1003;48.002;7.788;2023-11-22T00:25:58;7.40;99.90
2002;DHT22;1003;48.002;7.788;2023-11-22T00:28:25;7.30;99.90
2002;DHT22;1003;48.002;7.788;2023-11-22T00:30:52;7.40;99.90
2002;DHT22;1003;48.002;7.788;2023-11-22T00:33:20;7.30;99.90
2002;DHT22;1003;48.002;7.788;2023-11-22T00:35:47;7.30;99.90
2002;DHT22;1003;48.002;7.788;2023-11-22T00:38:14;7.30;99.90
2002;DHT22;1003;48.002;7.788;2023-11-22T00:40:41;7.40;99.90
2002;DHT22;1003;48.002;7.788;2023-11-22T00:43:08;7.40;99.90
2002;DHT22;1003;48.002;7.788;2023-11-22T00:45:34;7.40;99.90
2002;DHT22;1003;48.002;7.788;2023-11-22T00:48:01;7.40;99.90
2002;DHT22;1003;48.002;7.788;2023-11-22T00:50:30;7.40;99.90
2002;DHT22;1003;48.002;7.788;2023-11-22T00:52:56;7.40;99.90
2002;DHT22;1003;48.002;7.788;2023-11-22T00:55:23;7.30;99.90
2002;DHT22;1003;48.002;7.788;2023-11-22T00:57:50;7.30;99.90
2002;DHT22;1003;48.002;7.788;2023-11-22T01:00:17;7.40;99.90
2002;DHT22;1003;48.002;7.788;2023-11-22T01:02:44;7.40;99.90
2002;DHT22;1003;48.002;7.788;2023-11-22T01:05:11;7.40;99.90
2002;DHT22;1003;48.002;7.788;2023-11-22T01:07:41;7.40;99.90
2002;DHT22;1003;48.002;7.788;2023-11-22T01:10:08;7.40;99.90
2002;DHT22;1003;48.002;7.788;2023-11-22T01:12:36;7.40;99.90
2002;DHT22;1003;48.002;7.788;2023-11-22T01:15:03;7.40;99.90
2002;DHT22;1003;48.002;7.788;2023-11-22T01:17:31;7.40;99.90
2002;DHT22;1003;48.002;7.788;2023-11-22T01:19:58;7.30;99.90
2002;DHT22;1003;48.002;7.788;2023-11-22T01:22:25;7.30;99.90
2002;DHT22;1003;48.002;7.788;2023-11-22T01:24:54;7.30;99.90
2002;DHT22;1003;48.002;7.788;2023-11-22T01:27:21;7.30;99.90
2002;DHT22;1003;48.002;7.788;2023-11-22T01:29:49;7.30;99.90
2002;DHT22;1003;48.002;7.788;2023-11-22T01:32:16;7.30;99.90
2002;DHT22;1003;48.002;7.788;2023-11-22T01:34:44;7.30;99.90
2002;DHT22;1003;48.002;7.788;2023-11-22T01:37:11;7.30;99.90
2002;DHT22;1003;48.002;7.788;2023-11-22T01:39:39;7.30;99.90
2002;DHT22;1003;48.002;7.788;2023-11-22T01:42:08;7.30;99.90
2002;DHT22;1003;48.002;7.788;2023-11-22T01:44:35;7.30;99.90
2002;DHT22;1003;48.002;7.788;2023-11-22T01:47:05;7.30;99.90
2002;DHT22;1003;48.002;7.788;2023-11-22T01:49:32;7.30;99.90
2002;DHT22;1003;48.002;7.788;2023-11-22T01:52:01;7.30;99.90
2002;DHT22;1003;48.002;7.788;2023-11-22T01:54:31;7.30;99.90
2002;DHT22;1003;48.002;7.788;2023-11-22T01:56:58;7.30;99.90
2002;DHT22;1003;48.002;7.788;2023-11-22T01:59:27;7.30;99.90
2002;DHT22;1003;48.002;7.788;2023-11-22T02:01:57;7.30;99.90
2002;DHT22;1003;48.002;7.788;2023-11-22T02:04:24;7.30;99.90
2002;DHT22;1003;48.002;7.788;2023-11-22T02:06:51;7.40;99.90
2002;DHT22;1003;48.002;7.788;2023-11-22T02:09:18;7.40;99.90
2002;DHT22;1003;48.002;7.788;2023-11-22T02:11:45;7.30;99.90
2002;DHT22;1003;48.002;7.788;2023-11-22T02:14:14;7.30;99.90
2002;DHT22;1003;48.002;7.788;2023-11-22T02:16:43;7.30;99.90
2002;DHT22;1003;48.002;7.788;2023-11-22T02:19:16;7.30;99.90
2002;DHT22;1003;48.002;7.788;2023-11-22T02:21:44;7.30;99.90
2002;DHT22;1003;48.002;7.788;2023-11-22T02:24:12;7.30;99.90
2002;DHT22;1003;48.002;7.788;2023-11-22T02:26:44;7.40;99.90
2002;DHT22;1003;48.002;7.788;2023-11-22T02:29:11;7.40;99.90
2002;DHT22;1003;48.002;7.788;2023-11-22T02:31:39;7.40;99.90
2002;DHT22;1003;48.002;7.788;2023-11-22T02:34:08;7.40;99.90
2002;DHT22;1003;48.002;7.788;2023-11-22T02:36:35;7.30;99.90
2002;DHT22;1003;48.002;7.788;2023-11-22T02:39:02;7.20;99.90
2002;DHT22;1003;48.002;7.788;2023-11-22T02:41:31;7.20;99.90
2002;DHT22;1003;48.002;7.788;2023-11-22T02:43:57;7.10;99.90
2002;DHT22;1003;48.002;7.788;2023-11-22T02:46:25;6.90;99.90
2002;DHT22;1003;48.002;7.788;2023-11-22T02:48:52;6.80;99.90
2002;DHT22;1003;48.002;7.788;2023-11-22T02:51:20;6.70;99.90
2002;DHT22;1003;48.002;7.788;2023-11-22T02:53:48;6.70;99.90
2002;DHT22;1003;48.002;7.788;2023-11-22T02:56:15;6.50;99.90
2002;DHT22;1003;48.002;7.788;2023-11-22T02:58:43;6.50;99.90
2002;DHT22;1003;48.002;7.788;2023-11-22T03:01:11;6.40;99.90
2002;DHT22;1003;48.002;7.788;2023-11-22T03:03:38;6.30;99.90
2002;DHT22;1003;48.002;7.788;2023-11-22T03:06:06;6.20;99.90
2002;DHT22;1003;48.002;7.788;2023-11-22T03:08:33;6.20;99.90
2002;DHT22;1003;48.002;7.788;2023-11-22T03:11:00;6.10;99.90
2002;DHT22;1003;48.002;7.788;2023-11-22T03:13:27;6.10;99.90
2002;DHT22;1003;48.002;7.788;2023-11-22T03:15:56;6.10;99.90
2002;DHT22;1003;48.002;7.788;2023-11-22T03:18:23;6.00;99.90
2002;DHT22;1003;48.002;7.788;2023-11-22T03:20:51;5.90;99.90
2002;DHT22;1003;48.002;7.788;2023-11-22T03:23:20;5.90;99.90
2002;DHT22;1003;48.002;7.788;2023-11-22T03:25:47;5.80;99.90
2002;DHT22;1003;48.002;7.788;2023-11-22T03:28:14;5.70;99.90
2002;DHT22;1003;48.002;7.788;2023-11-22T03:30:41;5.70;99.90
2002;DHT22;1003;48.002;7.788;2023-11-22T03:33:09;5.60;99.90
2002;DHT22;1003;48.002;7.788;2023-11-22T03:35:36;5.60;99.90
2002;DHT22;1003;48.002;7.788;2023-11-22T03:38:03;5.50;99.90
2002;DHT22;1003;48.002;7.788;2023-11-22T03:40:30;5.40;99.90
2002;DHT22;1003;48.002;7.788;2023-11-22T03:42:57;5.40;99.90
2002;DHT22;1003;48.002;7.788;2023-11-22T03:45:24;5.40;99.90
2002;DHT22;1003;48.002;7.788;2023-11-22T03:47:50;5.30;99.90
2002;DHT22;1003;48.002;7.788;2023-11-22T03:52:47;5.30;99.90
2002;DHT22;1003;48.002;7.788;2023-11-22T03:55:14;5.10;99.90
2002;DHT22;1003;48.002;7.788;2023-11-22T03:57:41;5.00;99.90
2002;DHT22;1003;48.002;7.788;2023-11-22T04:00:08;4.90;99.90
2002;DHT22;1003;48.002;7.788;2023-11-22T04:02:37;4.80;99.90
2002;DHT22;1003;48.002;7.788;2023-11-22T04:05:06;4.70;99.90
2002;DHT22;1003;48.002;7.788;2023-11-22T04:07:34;4.70;99.90
2002;DHT22;1003;48.002;7.788;2023-11-22T04:10:04;4.70;99.90
2002;DHT22;1003;48.002;7.788;2023-11-22T04:12:31;4.60;99.90
2002;DHT22;1003;48.002;7.788;2023-11-22T04:14:58;4.60;99.90
2002;DHT22;1003;48.002;7.788;2023-11-22T04:17:25;4.60;99.90
2002;DHT22;1003;48.002;7.788;2023-11-22T04:19:52;4.60;99.90
2002;DHT22;1003;48.002;7.788;2023-11-22T04:22:19;4.50;99.90
2002;DHT22;1003;48.002;7.788;2023-11-22T04:24:47;4.40;99.90
2002;DHT22;1003;48.002;7.788;2023-11-22T04:27:14;4.40;99.90
2002;DHT22;1003;48.002;7.788;2023-11-22T04:29:41;4.40;99.90
2002;DHT22;1003;48.002;7.788;2023-11-22T04:32:08;4.40;99.90
2002;DHT22;1003;48.002;7.788;2023-11-22T04:34:35;4.40;99.90
2002;DHT22;1003;48.002;7.788;2023-11-22T04:37:03;4.40;99.90
2002;DHT22;1003;48.002;7.788;2023-11-22T04:39:30;4.40;99.90
2002;DHT22;1003;48.002;7.788;2023-11-22T04:41:59;4.40;99.90
2002;DHT22;1003;48.002;7.788;2023-11-22T04:44:26;4.40;99.90
2002;DHT22;1003;48.002;7.788;2023-11-22T04:46:52;4.30;99.90
2002;DHT22;1003;48.002;7.788;2023-11-22T04:49:19;4.30;99.90
2002;DHT22;1003;48.002;7.788;2023-11-22T04:51:46;4.30;99.90
2002;DHT22;1003;48.002;7.788;2023-11-22T04:54:15;4.30;99.90
2002;DHT22;1003;48.002;7.788;2023-11-22T04:56:42;4.40;99.90
2002;DHT22;1003;48.002;7.788;2023-11-22T04:59:11;4.30;99.90
2002;DHT22;1003;48.002;7.788;2023-11-22T05:01:38;4.40;99.90
2002;DHT22;1003;48.002;7.788;2023-11-22T05:04:05;4.30;99.90
2002;DHT22;1003;48.002;7.788;2023-11-22T05:06:32;4.30;99.90
2002;DHT22;1003;48.002;7.788;2023-11-22T05:08:59;4.40;99.90
2002;DHT22;1003;48.002;7.788;2023-11-22T05:11:26;4.40;99.90
2002;DHT22;1003;48.002;7.788;2023-11-22T05:13:53;4.30;99.90
2002;DHT22;1003;48.002;7.788;2023-11-22T05:16:21;4.30;99.90
2002;DHT22;1003;48.002;7.788;2023-11-22T05:18:49;4.40;99.90
2002;DHT22;1003;48.002;7.788;2023-11-22T05:21:16;4.30;99.90
2002;DHT22;1003;48.002;7.788;2023-11-22T05:23:43;4.40;99.90
2002;DHT22;1003;48.002;7.788;2023-11-22T05:26:10;4.40;99.90
2002;DHT22;1003;48.002;7.788;2023-11-22T05:28:37;4.30;99.90
2002;DHT22;1003;48.002;7.788;2023-11-22T05:31:04;4.30;99.90
2002;DHT22;1003;48.002;7.788;2023-11-22T05:33:32;4.30;99.90
2002;DHT22;1003;48.002;7.788;2023-11-22T05:35:59;4.30;99.90
2002;DHT22;1003;48.002;7.788;2023-11-22T05:38:26;4.30;99.90
2002;DHT22;1003;48.002;7.788;2023-11-22T05:40:53;4.30;99.90
2002;DHT22;1003;48.002;7.788;2023-11-22T05:43:20;4.30;99.90
2002;DHT22;1003;48.002;7.788;2023-11-22T05:45:51;4.30;99.90
2002;DHT22;1003;48.002;7.788;2023-11-22T05:48:17;4.30;99.90
2002;DHT22;1003;48.002;7.788;2023-11-22T05:50:47;4.20;99.90
2002;DHT22;1003;48.002;7.788;2023-11-22T05:53:14;4.20;99.90
2002;DHT22;1003;48.002;7.788;2023-11-22T05:55:47;4.20;99.90
2002;DHT22;1003;48.002;7.788;2023-11-22T05:58:15;4.20;99.90
2002;DHT22;1003;48.002;7.788;2023-11-22T06:00:43;4.20;99.90
2002;DHT22;1003;48.002;7.788;2023-11-22T06:03:11;4.10;99.90
2002;DHT22;1003;48.002;7.788;2023-11-22T06:05:39;4.10;99.90
2002;DHT22;1003;48.002;7.788;2023-11-22T06:08:08;4.10;99.90
2002;DHT22;1003;48.002;7.788;2023-11-22T06:10:35;4.00;99.90
2002;DHT22;1003;48.002;7.788;2023-11-22T06:13:03;4.00;99.90
2002;DHT22;1003;48.002;7.788;2023-11-22T06:15:30;4.00;99.90
2002;DHT22;1003;48.002;7.788;2023-11-22T06:17:57;4.00;99.90
2002;DHT22;1003;48.002;7.788;2023-11-22T06:20:24;3.90;99.90
2002;DHT22;1003;48.002;7.788;2023-11-22T06:22:52;3.90;99.90
2002;DHT22;1003;48.002;7.788;2023-11-22T06:25:20;3.90;99.90
2002;DHT22;1003;48.002;7.788;2023-11-22T06:27:47;3.90;99.90
2002;DHT22;1003;48.002;7.788;2023-11-22T06:30:15;3.90;99.90
2002;DHT22;1003;48.002;7.788;2023-11-22T06:32:42;3.90;99.90
2002;DHT22;1003;48.002;7.788;2023-11-22T06:35:10;3.90;99.90
2002;DHT22;1003;48.002;7.788;2023-11-22T06:37:40;3.90;99.90
2002;DHT22;1003;48.002;7.788;2023-11-22T06:40:07;3.80;99.90
2002;DHT22;1003;48.002;7.788;2023-11-22T06:42:36;3.90;99.90
2002;DHT22;1003;48.002;7.788;2023-11-22T06:45:04;3.90;99.90
2002;DHT22;1003;48.002;7.788;2023-11-22T06:47:35;3.90;99.90
2002;DHT22;1003;48.002;7.788;2023-11-22T06:50:05;3.80;99.90
2002;DHT22;1003;48.002;7.788;2023-11-22T06:52:34;3.90;99.90
2002;DHT22;1003;48.002;7.788;2023-11-22T06:55:01;3.80;99.90
2002;DHT22;1003;48.002;7.788;2023-11-22T06:57:29;3.80;99.90
2002;DHT22;1003;48.002;7.788;2023-11-22T06:59:57;3.80;99.90
2002;DHT22;1003;48.002;7.788;2023-11-22T07:02:24;3.70;99.90
2002;DHT22;1003;48.002;7.788;2023-11-22T07:04:51;3.80;99.90
2002;DHT22;1003;48.002;7.788;2023-11-22T07:07:18;3.70;99.90
2002;DHT22;1003;48.002;7.788;2023-11-22T07:09:45;3.60;99.90
2002;DHT22;1003;48.002;7.788;2023-11-22T07:12:12;3.50;99.90
2002;DHT22;1003;48.002;7.788;2023-11-22T07:14:39;3.40;99.90
2002;DHT22;1003;48.002;7.788;2023-11-22T07:17:10;3.40;99.90
2002;DHT22;1003;48.002;7.788;2023-11-22T07:19:37;3.30;99.90
2002;DHT22;1003;48.002;7.788;2023-11-22T07:22:04;3.30;99.90
2002;DHT22;1003;48.002;7.788;2023-11-22T07:24:41;3.30;99.90
2002;DHT22;1003;48.002;7.788;2023-11-22T07:27:10;3.20;99.90
2002;DHT22;1003;48.002;7.788;2023-11-22T07:29:38;3.20;99.90
2002;DHT22;1003;48.002;7.788;2023-11-22T07:32:06;3.10;99.90
2002;DHT22;1003;48.002;7.788;2023-11-22T07:34:36;3.10;99.90
2002;DHT22;1003;48.002;7.788;2023-11-22T07:37:04;3.00;99.90
2002;DHT22;1003;48.002;7.788;2023-11-22T07:39:32;3.00;99.90
2002;DHT22;1003;48.002;7.788;2023-11-22T07:42:01;3.00;99.90
2002;DHT22;1003;48.002;7.788;2023-11-22T07:44:28;2.90;99.90
2002;DHT22;1003;48.002;7.788;2023-11-22T07:46:58;2.90;99.90
2002;DHT22;1003;48.002;7.788;2023-11-22T07:49:25;2.90;99.90
2002;DHT22;1003;48.002;7.788;2023-11-22T07:51:54;2.80;99.90
2002;DHT22;1003;48.002;7.788;2023-11-22T07:54:22;2.90;99.90
2002;DHT22;1003;48.002;7.788;2023-11-22T07:56:49;2.80;99.90
2002;DHT22;1003;48.002;7.788;2023-11-22T07:59:17;2.90;99.90
2002;DHT22;1003;48.002;7.788;2023-11-22T08:01:45;2.90;99.90
2002;DHT22;1003;48.002;7.788;2023-11-22T08:04:16;2.90;99.90
2002;DHT22;1003;48.002;7.788;2023-11-22T08:06:43;2.80;99.90
2002;DHT22;1003;48.002;7.788;2023-11-22T08:09:12;2.90;99.90
2002;DHT22;1003;48.002;7.788;2023-11-22T08:11:41;2.90;99.90
2002;DHT22;1003;48.002;7.788;2023-11-22T08:14:08;3.00;99.90
2002;DHT22;1003;48.002;7.788;2023-11-22T08:16:38;3.00;99.90
2002;DHT22;1003;48.002;7.788;2023-11-22T08:19:08;3.00;99.90
2002;DHT22;1003;48.002;7.788;2023-11-22T08:21:35;3.00;99.90
2002;DHT22;1003;48.002;7.788;2023-11-22T08:24:02;3.00;99.90
2002;DHT22;1003;48.002;7.788;2023-11-22T08:26:31;3.00;99.90
2002;DHT22;1003;48.002;7.788;2023-11-22T08:28:58;3.00;99.90
2002;DHT22;1003;48.002;7.788;2023-11-22T08:31:25;2.90;99.90
2002;DHT22;1003;48.002;7.788;2023-11-22T08:33:51;3.00;99.90
2002;DHT22;1003;48.002;7.788;2023-11-22T08:36:18;3.00;99.90
2002;DHT22;1003;48.002;7.788;2023-11-22T08:38:45;3.00;99.90
2002;DHT22;1003;48.002;7.788;2023-11-22T08:41:12;3.10;99.90
2002;DHT22;1003;48.002;7.788;2023-11-22T08:43:41;3.10;99.90
2002;DHT22;1003;48.002;7.788;2023-11-22T08:46:08;3.10;99.90
2002;DHT22;1003;48.002;7.788;2023-11-22T08:48:35;3.20;99.90
2002;DHT22;1003;48.002;7.788;2023-11-22T08:51:03;3.20;99.90
2002;DHT22;1003;48.002;7.788;2023-11-22T08:53:30;3.30;99.90
2002;DHT22;1003;48.002;7.788;2023-11-22T08:55:57;3.30;99.90
2002;DHT22;1003;48.002;7.788;2023-11-22T08:58:24;3.30;99.90
2002;DHT22;1003;48.002;7.788;2023-11-22T09:00:53;3.40;99.90
2002;DHT22;1003;48.002;7.788;2023-11-22T09:03:23;3.50;99.90
2002;DHT22;1003;48.002;7.788;2023-11-22T09:05:50;3.50;99.90
2002;DHT22;1003;48.002;7.788;2023-11-22T09:08:18;3.50;99.90
2002;DHT22;1003;48.002;7.788;2023-11-22T09:10:46;3.50;99.90
2002;DHT22;1003;48.002;7.788;2023-11-22T09:13:13;3.50;99.90
2002;DHT22;1003;48.002;7.788;2023-11-22T09:15:45;3.50;99.90
2002;DHT22;1003;48.002;7.788;2023-11-22T09:18:13;3.50;99.90
2002;DHT22;1003;48.002;7.788;2023-11-22T09:20:41;3.50;99.90
2002;DHT22;1003;48.002;7.788;2023-11-22T09:23:10;3.60;99.90
2002;DHT22;1003;48.002;7.788;2023-11-22T09:25:37;3.60;99.90
2002;DHT22;1003;48.002;7.788;2023-11-22T09:28:04;3.50;99.90
2002;DHT22;1003;48.002;7.788;2023-11-22T09:30:32;3.60;99.90
2002;DHT22;1003;48.002;7.788;2023-11-22T09:33:01;3.40;99.90
2002;DHT22;1003;48.002;7.788;2023-11-22T09:35:30;3.50;99.90
2002;DHT22;1003;48.002;7.788;2023-11-22T09:37:59;3.50;99.90
2002;DHT22;1003;48.002;7.788;2023-11-22T09:40:26;3.60;99.90
2002;DHT22;1003;48.002;7.788;2023-11-22T09:42:54;3.60;99.90
2002;DHT22;1003;48.002;7.788;2023-11-22T09:45:23;3.60;99.90
2002;DHT22;1003;48.002;7.788;2023-11-22T09:47:51;3.50;99.90
2002;DHT22;1003;48.002;7.788;2023-11-22T09:50:20;3.50;99.90
2002;DHT22;1003;48.002;7.788;2023-11-22T09:53:00;3.50;99.90
2002;DHT22;1003;48.002;7.788;2023-11-22T09:55:31;3.50;99.90
2002;DHT22;1003;48.002;7.788;2023-11-22T09:57:59;3.60;99.90
2002;DHT22;1003;48.002;7.788;2023-11-22T10:00:28;3.60;99.90
2002;DHT22;1003;48.002;7.788;2023-11-22T10:02:56;3.60;99.90
2002;DHT22;1003;48.002;7.788;2023-11-22T10:05:23;3.60;99.90
2002;DHT22;1003;48.002;7.788;2023-11-22T10:07:54;3.60;99.90
2002;DHT22;1003;48.002;7.788;2023-11-22T10:10:22;3.60;99.90
2002;DHT22;1003;48.002;7.788;2023-11-22T10:12:54;3.60;99.90
2002;DHT22;1003;48.002;7.788;2023-11-22T10:15:23;3.50;99.90
2002;DHT22;1003;48.002;7.788;2023-11-22T10:17:55;3.60;99.90
2002;DHT22;1003;48.002;7.788;2023-11-22T10:20:23;3.80;99.90
2002;DHT22;1003;48.002;7.788;2023-11-22T10:22:51;3.80;99.90
2002;DHT22;1003;48.002;7.788;2023-11-22T10:25:19;3.70;99.90
2002;DHT22;1003;48.002;7.788;2023-11-22T10:27:49;3.80;99.90
2002;DHT22;1003;48.002;7.788;2023-11-22T10:30:17;4.00;99.90
2002;DHT22;1003;48.002;7.788;2023-11-22T10:32:45;4.00;99.90
2002;DHT22;1003;48.002;7.788;2023-11-22T10:35:12;4.10;99.90
2002;DHT22;1003;48.002;7.788;2023-11-22T10:37:41;4.20;99.90
2002;DHT22;1003;48.002;7.788;2023-11-22T10:40:12;4.10;99.90
2002;DHT22;1003;48.002;7.788;2023-11-22T10:42:41;3.90;99.90
2002;DHT22;1003;48.002;7.788;2023-11-22T10:45:10;4.10;99.90
2002;DHT22;1003;48.002;7.788;2023-11-22T10:47:39;4.10;99.90
2002;DHT22;1003;48.002;7.788;2023-11-22T10:50:08;4.00;99.90
2002;DHT22;1003;48.002;7.788;2023-11-22T10:52:41;3.90;99.90
2002;DHT22;1003;48.002;7.788;2023-11-22T10:55:12;3.90;99.90
2002;DHT22;1003;48.002;7.788;2023-11-22T10:57:45;3.80;99.90
2002;DHT22;1003;48.002;7.788;2023-11-22T11:00:16;3.80;99.90
2002;DHT22;1003;48.002;7.788;2023-11-22T11:02:51;3.80;99.90
2002;DHT22;1003;48.002;7.788;2023-11-22T11:05:28;3.70;99.90
2002;DHT22;1003;48.002;7.788;2023-11-22T11:08:06;3.70;99.90
2002;DHT22;1003;48.002;7.788;2023-11-22T11:10:38;3.70;99.90
2002;DHT22;1003;48.002;7.788;2023-11-22T11:13:06;3.70;99.90
2002;DHT22;1003;48.002;7.788;2023-11-22T11:15:36;3.70;99.90
2002;DHT22;1003;48.002;7.788;2023-11-22T11:18:05;3.70;99.90
2002;DHT22;1003;48.002;7.788;2023-11-22T11:20:45;3.70;99.90
2002;DHT22;1003;48.002;7.788;2023-11-22T11:23:13;3.60;99.90
2002;DHT22;1003;48.002;7.788;2023-11-22T11:25:41;3.60;99.90
2002;DHT22;1003;48.002;7.788;2023-11-22T11:28:10;3.60;99.90
2002;DHT22;1003;48.002;7.788;2023-11-22T11:30:43;3.60;99.90
2002;DHT22;1003;48.002;7.788;2023-11-22T11:33:12;3.70;99.90
2002;DHT22;1003;48.002;7.788;2023-11-22T11:35:46;3.60;99.90
2002;DHT22;1003;48.002;7.788;2023-11-22T11:38:15;3.60;99.90
2002;DHT22;1003;48.002;7.788;2023-11-22T11:40:45;3.60;99.90
2002;DHT22;1003;48.002;7.788;2023-11-22T11:43:13;3.60;99.90
2002;DHT22;1003;48.002;7.788;2023-11-22T11:45:41;3.60;99.90
2002;DHT22;1003;48.002;7.788;2023-11-22T11:48:13;3.70;99.90
2002;DHT22;1003;48.002;7.788;2023-11-22T11:50:40;3.80;99.90
2002;DHT22;1003;48.002;7.788;2023-11-22T11:53:07;3.80;99.90
2002;DHT22;1003;48.002;7.788;2023-11-22T11:55:35;3.70;99.90
2002;DHT22;1003;48.002;7.788;2023-11-22T11:58:06;3.70;99.90
2002;DHT22;1003;48.002;7.788;2023-11-22T12:00:35;3.60;99.90
2002;DHT22;1003;48.002;7.788;2023-11-22T12:03:07;3.70;99.90
2002;DHT22;1003;48.002;7.788;2023-11-22T12:05:36;3.60;99.90
2002;DHT22;1003;48.002;7.788;2023-11-22T12:08:03;3.60;99.90
2002;DHT22;1003;48.002;7.788;2023-11-22T12:10:31;3.60;99.90
2002;DHT22;1003;48.002;7.788;2023-11-22T12:12:58;3.50;99.90
2002;DHT22;1003;48.002;7.788;2023-11-22T12:15:25;3.40;99.90
2002;DHT22;1003;48.002;7.788;2023-11-22T12:17:53;3.40;99.90
2002;DHT22;1003;48.002;7.788;2023-11-22T12:20:24;3.40;99.90
2002;DHT22;1003;48.002;7.788;2023-11-22T12:22:52;3.50;99.90
2002;DHT22;1003;48.002;7.788;2023-11-22T12:25:19;3.40;99.90
2002;DHT22;1003;48.002;7.788;2023-11-22T12:27:46;3.40;99.90
2002;DHT22;1003;48.002;7.788;2023-11-22T12:30:31;3.40;99.90
2002;DHT22;1003;48.002;7.788;2023-11-22T12:33:02;3.40;99.90
2002;DHT22;1003;48.002;7.788;2023-11-22T12:35:32;3.40;99.90
2002;DHT22;1003;48.002;7.788;2023-11-22T12:38:01;3.40;99.90
2002;DHT22;1003;48.002;7.788;2023-11-22T12:40:31;3.40;99.90
2002;DHT22;1003;48.002;7.788;2023-11-22T12:42:59;3.30;99.90
2002;DHT22;1003;48.002;7.788;2023-11-22T12:45:27;3.40;99.90
2002;DHT22;1003;48.002;7.788;2023-11-22T12:47:55;3.30;99.90
2002;DHT22;1003;48.002;7.788;2023-11-22T12:50:32;3.30;99.90
2002;DHT22;1003;48.002;7.788;2023-11-22T12:53:08;3.40;99.90
2002;DHT22;1003;48.002;7.788;2023-11-22T12:55:37;3.30;99.90
2002;DHT22;1003;48.002;7.788;2023-11-22T12:58:05;3.30;99.90
2002;DHT22;1003;48.002;7.788;2023-11-22T13:00:33;3.30;99.90
2002;DHT22;1003;48.002;7.788;2023-11-22T13:03:00;3.30;99.90
2002;DHT22;1003;48.002;7.788;2023-11-22T13:05:27;3.30;99.90
2002;DHT22;1003;48.002;7.788;2023-11-22T13:07:55;3.30;99.90
2002;DHT22;1003;48.002;7.788;2023-11-22T13:10:22;3.40;99.90
2002;DHT22;1003;48.002;7.788;2023-11-22T13:12:52;3.40;99.90
2002;DHT22;1003;48.002;7.788;2023-11-22T13:15:20;3.50;99.90
2002;DHT22;1003;48.002;7.788;2023-11-22T13:17:49;3.40;99.90
2002;DHT22;1003;48.002;7.788;2023-11-22T13:20:23;3.40;99.90
2002;DHT22;1003;48.002;7.788;2023-11-22T13:22:51;3.50;99.90
2002;DHT22;1003;48.002;7.788;2023-11-22T13:25:20;3.50;99.90
2002;DHT22;1003;48.002;7.788;2023-11-22T13:27:49;3.40;99.90
2002;DHT22;1003;48.002;7.788;2023-11-22T13:30:18;3.50;99.90
2002;DHT22;1003;48.002;7.788;2023-11-22T13:32:48;3.40;99.90
2002;DHT22;1003;48.002;7.788;2023-11-22T13:35:15;3.40;99.90
2002;DHT22;1003;48.002;7.788;2023-11-22T13:37:43;3.40;99.90
2002;DHT22;1003;48.002;7.788;2023-11-22T13:40:12;3.40;99.90
2002;DHT22;1003;48.002;7.788;2023-11-22T13:42:43;3.30;99.90
2002;DHT22;1003;48.002;7.788;2023-11-22T13:45:11;3.40;99.90
2002;DHT22;1003;48.002;7.788;2023-11-22T13:47:43;3.40;99.90
2002;DHT22;1003;48.002;7.788;2023-11-22T13:50:12;3.40;99.90
2002;DHT22;1003;48.002;7.788;2023-11-22T13:52:44;3.30;99.90
2002;DHT22;1003;48.002;7.788;2023-11-22T13:55:12;3.30;99.90
2002;DHT22;1003;48.002;7.788;2023-11-22T13:57:39;3.50;99.90
2002;DHT22;1003;48.002;7.788;2023-11-22T14:00:09;3.40;99.90
2002;DHT22;1003;48.002;7.788;2023-11-22T14:02:38;3.40;99.90
2002;DHT22;1003;48.002;7.788;2023-11-22T14:05:07;3.30;99.90
2002;DHT22;1003;48.002;7.788;2023-11-22T14:07:37;3.30;99.90
2002;DHT22;1003;48.002;7.788;2023-11-22T14:10:06;3.40;99.90
2002;DHT22;1003;48.002;7.788;2023-11-22T14:12:34;3.30;99.90
2002;DHT22;1003;48.002;7.788;2023-11-22T14:15:02;3.30;99.90
2002;DHT22;1003;48.002;7.788;2023-11-22T14:17:32;3.30;99.90
2002;DHT22;1003;48.002;7.788;2023-11-22T14:20:00;3.40;99.90
2002;DHT22;1003;48.002;7.788;2023-11-22T14:22:28;3.40;99.90
2002;DHT22;1003;48.002;7.788;2023-11-22T14:24:56;3.40;99.90
2002;DHT22;1003;48.002;7.788;2023-11-22T14:27:23;3.50;99.90
2002;DHT22;1003;48.002;7.788;2023-11-22T14:29:50;3.50;99.90
2002;DHT22;1003;48.002;7.788;2023-11-22T14:32:18;3.50;99.90
2002;DHT22;1003;48.002;7.788;2023-11-22T14:34:47;3.50;99.90
2002;DHT22;1003;48.002;7.788;2023-11-22T14:37:15;3.50;99.90
2002;DHT22;1003;48.002;7.788;2023-11-22T14:39:42;3.50;99.90
2002;DHT22;1003;48.002;7.788;2023-11-22T14:42:10;3.60;99.90
2002;DHT22;1003;48.002;7.788;2023-11-22T14:44:37;3.60;99.90
2002;DHT22;1003;48.002;7.788;2023-11-22T14:47:04;3.60;99.90
2002;DHT22;1003;48.002;7.788;2023-11-22T14:49:38;3.60;99.90
2002;DHT22;1003;48.002;7.788;2023-11-22T14:52:06;3.60;99.90
2002;DHT22;1003;48.002;7.788;2023-11-22T14:54:35;3.50;99.90
2002;DHT22;1003;48.002;7.788;2023-11-22T14:57:02;3.60;99.90
2002;DHT22;1003;48.002;7.788;2023-11-22T14:59:28;3.60;99.90
2002;DHT22;1003;48.002;7.788;2023-11-22T15:01:56;3.60;99.90
2002;DHT22;1003;48.002;7.788;2023-11-22T15:04:23;3.60;99.90
2002;DHT22;1003;48.002;7.788;2023-11-22T15:06:51;3.50;99.90
2002;DHT22;1003;48.002;7.788;2023-11-22T15:09:19;3.40;99.90
2002;DHT22;1003;48.002;7.788;2023-11-22T15:11:47;3.40;99.90
2002;DHT22;1003;48.002;7.788;2023-11-22T15:14:14;3.50;99.90
2002;DHT22;1003;48.002;7.788;2023-11-22T15:16:42;3.50;99.90
2002;DHT22;1003;48.002;7.788;2023-11-22T15:19:09;3.50;99.90
2002;DHT22;1003;48.002;7.788;2023-11-22T15:21:36;3.40;99.90
2002;DHT22;1003;48.002;7.788;2023-11-22T15:24:03;3.40;99.90
2002;DHT22;1003;48.002;7.788;2023-11-22T15:26:31;3.40;99.90
2002;DHT22;1003;48.002;7.788;2023-11-22T15:29:00;3.30;99.90
2002;DHT22;1003;48.002;7.788;2023-11-22T15:31:27;3.30;99.90
2002;DHT22;1003;48.002;7.788;2023-11-22T15:33:54;3.30;99.90
2002;DHT22;1003;48.002;7.788;2023-11-22T15:36:21;3.30;99.90
2002;DHT22;1003;48.002;7.788;2023-11-22T15:38:48;3.20;99.90
2002;DHT22;1003;48.002;7.788;2023-11-22T15:41:15;3.20;99.90
2002;DHT22;1003;48.002;7.788;2023-11-22T15:43:44;3.20;99.90
2002;DHT22;1003;48.002;7.788;2023-11-22T15:46:12;3.20;99.90
2002;DHT22;1003;48.002;7.788;2023-11-22T15:48:42;3.20;99.90
2002;DHT22;1003;48.002;7.788;2023-11-22T15:51:10;3.10;99.90
2002;DHT22;1003;48.002;7.788;2023-11-22T15:53:38;3.10;99.90
2002;DHT22;1003;48.002;7.788;2023-11-22T15:56:05;3.10;99.90
2002;DHT22;1003;48.002;7.788;2023-11-22T15:58:33;3.10;99.90
2002;DHT22;1003;48.002;7.788;2023-11-22T16:01:03;3.10;99.90
2002;DHT22;1003;48.002;7.788;2023-11-22T16:03:31;3.10;99.90
2002;DHT22;1003;48.002;7.788;2023-11-22T16:05:59;3.10;99.90
2002;DHT22;1003;48.002;7.788;2023-11-22T16:08:28;3.10;99.90
2002;DHT22;1003;48.002;7.788;2023-11-22T16:10:55;3.10;99.90
2002;DHT22;1003;48.002;7.788;2023-11-22T16:13:22;3.20;99.90
2002;DHT22;1003;48.002;7.788;2023-11-22T16:15:51;3.10;99.90
2002;DHT22;1003;48.002;7.788;2023-11-22T16:18:20;3.20;99.90
2002;DHT22;1003;48.002;7.788;2023-11-22T16:20:51;3.10;99.90
2002;DHT22;1003;48.002;7.788;2023-11-22T16:23:18;3.10;99.90
2002;DHT22;1003;48.002;7.788;2023-11-22T16:25:45;3.10;99.90